CheckWX is a tool to help pilots better visualize weather data.  It is not intended as a substitute for an official pre-flight weather briefing.

14:30:52 UTC

KMML METAR
Southwest Minnesota Regional Marshall / Ryan Field Airport
Marshall, Minnesota, USA
Current

35 mins ago

KMML 201356Z AUTO 32025G32KT 3SM TSRA BR FEW030 BKN050 OVC070 16/14 A3006 RMK AO2 PK WND 31037/1340 WSHFT 1321 LTG DSNT ALQDS TSE49B51RAB38 SLP174 P0019 T01560139
Observed
Jul-20 @ 13:56 UTC
Wind
  • 320° at 25 KTS
  • Gusting to 32 KTS
Visibility
3 SM
Flight Rules
MVFR
Conditions
Thunderstorm, Rain, Mist
Cloud Levels
  • Few at 3,000' AGL
  • Broken at 5,000' AGL
  • Overcast at 7,000' AGL
Temperature
16°C / 61°F
Dewpoint
14°C / 57°F
Humidity
88%
Altimeter
30.06" Hg
Pressure
1017.92 hPa
Current Rain
0.19"
Previous

2 hours ago

KMML 201256Z AUTO 03011KT 10SM VCTS OVC050 19/14 A2984 RMK AO2 LTG DSNT N AND NW TSB53 SLP100 T01940144
Observed
Jul-20 @ 12:56 UTC
Wind
  • 030° at 11 KTS
Visibility
10 SM
Flight Rules
VFR
Conditions
Area Thunderstorm
Cloud Levels
  • Overcast at 5,000' AGL
Temperature
19°C / 66°F
Dewpoint
14°C / 57°F
Humidity
73%
Altimeter
29.84" Hg
Pressure
1010.52 hPa
Previous

3 hours ago

KMML 201156Z AUTO 05013G20KT 10SM FEW012 OVC046 21/18 A2983 RMK AO2 WSHFT 1111 LTG DSNT ALQDS TSE41RAB00E35 SLP093 P0026 60026 70026 T02060183 10233 20206 53009
Observed
Jul-20 @ 11:56 UTC
Wind
  • 050° at 13 KTS
  • Gusting to 20 KTS
Visibility
10 SM
Flight Rules
VFR
Cloud Levels
  • Few at 1,200' AGL
  • Overcast at 4,600' AGL
Temperature
21°C / 70°F
Dewpoint
18°C / 64°F
Humidity
83%
Altimeter
29.83" Hg
Pressure
1010.12 hPa
Current Rain
0.26"
24 Hour Rain
0.26"